Uvalde Research's Hourly Summary for Sunday, April 16, 2017
Hour Temp
(f)
RH
(%)
Solar Rad.
(MJ/m2)
Rainfall
(in)
Wind
(mph)
4/16/2017 12:00 AM 71 85 0 0 4.1
4/16/2017 1:00 AM 70 87 0 0 4.11
4/16/2017 2:00 AM 70 88 0 0 2.59
4/16/2017 3:00 AM 69 91 0 0 2.34
4/16/2017 4:00 AM 68 94 0 0 2.16
4/16/2017 5:00 AM 67 95 0 0 1.71
4/16/2017 6:00 AM 67 97 0 0 2.23
4/16/2017 7:00 AM 67 97 0.06 0 1.5
4/16/2017 8:00 AM 68 97 0.31 0 3.04
4/16/2017 9:00 AM 70 93 0.52 0 4.21
4/16/2017 10:00 AM 72 86 0.83 0 4.57
4/16/2017 11:00 AM 73 82 0.7 0 2.99
4/16/2017 12:00 PM 76 77 1.26 0 3.69
4/16/2017 1:00 PM 76 76 0.81 0 3.05
4/16/2017 2:00 PM 77 74 0.66 0 1.89
4/16/2017 3:00 PM 77 73 0.65 0 1.38
4/16/2017 4:00 PM 80 67 1.68 0 3.16
4/16/2017 5:00 PM 81 64 1.13 0 3.95
4/16/2017 6:00 PM 79 68 0.34 0 3.3
4/16/2017 7:00 PM 78 70 0.08 0 2.28
4/16/2017 8:00 PM 77 74 0 0 3.69
4/16/2017 9:00 PM 75 78 0 0 4.44
4/16/2017 10:00 PM 68 89 0 0.07 1.54
4/16/2017 11:00 PM 64 95 0 0.61 2.58
Data Summary 72 83 9.03 0.68 2.94